createdAt,value
2022-12-17T00:03:42.583Z,100788.78
2022-12-17T00:09:02.952Z,100795.00
2022-12-17T00:14:24.904Z,100795.00
2022-12-17T00:19:45.275Z,100809.47
2022-12-17T00:25:05.621Z,100805.06
2022-12-17T00:30:28.892Z,100823.94
2022-12-17T00:35:49.435Z,100817.59
2022-12-17T00:41:10.176Z,100821.38
2022-12-17T00:46:32.153Z,100825.88
2022-12-17T00:51:52.732Z,100834.13
2022-12-17T00:57:12.925Z,100842.06
2022-12-17T01:02:35.011Z,100841.28
2022-12-17T01:07:55.308Z,100851.91
2022-12-17T01:13:16.503Z,100849.22
2022-12-17T01:18:38.281Z,100848.38
2022-12-17T01:23:58.580Z,100853.81
2022-12-17T01:29:18.769Z,100864.34
2022-12-17T01:34:40.274Z,100869.91
2022-12-17T01:40:00.580Z,100870.00
2022-12-17T01:45:20.992Z,100877.94
2022-12-17T01:50:43.542Z,100878.03
2022-12-17T01:56:03.751Z,100873.84
2022-12-17T02:01:24.477Z,100879.88
2022-12-17T02:06:46.505Z,100887.41
2022-12-17T02:12:10.440Z,100881.13
2022-12-17T02:17:32.761Z,100888.66
2022-12-17T02:22:57.642Z,100892.44
2022-12-17T02:28:19.586Z,100892.91
2022-12-17T02:33:40.142Z,100884.56
2022-12-17T02:39:01.443Z,100891.44
2022-12-17T02:44:23.870Z,100893.25
2022-12-17T02:49:40.976Z,100902.91
2022-12-17T02:55:01.559Z,100906.66
2022-12-17T03:00:24.526Z,100915.69
2022-12-17T03:05:45.963Z,100902.38
2022-12-17T03:11:06.432Z,100906.88
2022-12-17T03:16:34.200Z,100916.94
2022-12-17T03:21:57.767Z,100920.28
2022-12-17T03:27:18.241Z,100924.34
2022-12-17T03:32:39.715Z,100930.56
2022-12-17T03:38:00.156Z,100918.31
2022-12-17T03:43:24.708Z,100916.59
2022-12-17T03:48:46.053Z,100938.03
2022-12-17T03:54:06.312Z,100932.69
2022-12-17T03:59:26.461Z,100940.72
2022-12-17T04:04:47.969Z,100940.94
2022-12-17T04:10:08.225Z,100949.19
2022-12-17T04:15:29.076Z,100965.13
2022-12-17T04:20:50.816Z,100969.69
2022-12-17T04:26:11.326Z,100975.59
2022-12-17T04:31:31.839Z,100976.06
2022-12-17T04:36:53.546Z,100988.03
2022-12-17T04:42:13.928Z,100987.84
2022-12-17T04:47:34.286Z,100990.25
2022-12-17T04:52:55.779Z,100984.69
2022-12-17T04:58:20.611Z,100995.38
2022-12-17T05:03:41.088Z,101012.47
2022-12-17T05:09:08.442Z,101027.09
2022-12-17T05:14:28.796Z,101033.25
2022-12-17T05:19:48.997Z,101037.28
2022-12-17T05:25:10.834Z,101050.03
2022-12-17T05:30:31.248Z,101048.66
2022-12-17T05:35:51.439Z,101061.66
2022-12-17T05:41:14.357Z,101058.19
2022-12-17T05:46:34.472Z,101067.22
2022-12-17T05:51:54.777Z,101076.22
2022-12-17T05:57:16.335Z,101073.72
2022-12-17T06:02:37.068Z,101079.94
2022-12-17T06:07:57.463Z,101083.72
2022-12-17T06:13:18.759Z,101088.28
2022-12-17T06:18:47.392Z,101099.09
2022-12-17T06:24:22.325Z,101104.63
2022-12-17T06:29:43.892Z,101105.63
2022-12-17T06:35:04.276Z,101109.34
2022-12-17T06:40:25.522Z,101116.69
2022-12-17T06:45:47.199Z,101123.91
2022-12-17T06:51:07.597Z,101135.66
2022-12-17T06:56:27.863Z,101142.91
2022-12-17T07:01:49.509Z,101150.25
2022-12-17T07:07:10.125Z,101148.59
2022-12-17T07:12:30.236Z,101153.16
2022-12-17T07:17:52.203Z,101158.59
2022-12-17T07:23:27.996Z,101171.28
2022-12-17T07:28:48.475Z,101170.38
2022-12-17T07:34:10.296Z,101190.13
2022-12-17T07:39:30.907Z,101189.28
2022-12-17T07:44:51.213Z,101197.47
2022-12-17T07:50:13.391Z,101202.09
2022-12-17T07:55:33.991Z,101195.03
2022-12-17T08:00:54.228Z,101196.91
2022-12-17T08:06:17.085Z,101207.53
2022-12-17T08:11:37.231Z,101216.03
2022-12-17T08:16:58.352Z,101237.31
2022-12-17T08:22:20.684Z,101252.84
2022-12-17T08:27:41.047Z,101251.97
2022-12-17T08:33:03.501Z,101259.44
2022-12-17T08:38:25.466Z,101254.56
2022-12-17T08:43:45.620Z,101268.13
2022-12-17T08:49:05.771Z,101287.69
2022-12-17T08:54:27.481Z,101282.84
2022-12-17T08:59:48.045Z,101282.78
2022-12-17T09:05:08.189Z,101289.50
2022-12-17T09:10:29.860Z,101301.63
2022-12-17T09:15:50.548Z,101306.56
2022-12-17T09:21:11.289Z,101295.59
2022-12-17T09:26:38.060Z,101291.63
2022-12-17T09:31:58.196Z,101298.63
2022-12-17T09:37:18.589Z,101306.75
2022-12-17T09:42:45.515Z,101311.84
2022-12-17T09:48:10.810Z,101307.09
2022-12-17T09:53:39.286Z,101313.25
2022-12-17T09:59:00.858Z,101310.72
2022-12-17T10:04:20.919Z,101318.50
2022-12-17T10:09:41.545Z,101325.41
2022-12-17T10:15:03.332Z,101333.44
2022-12-17T10:20:32.614Z,101329.72
2022-12-17T10:25:53.161Z,101340.53
2022-12-17T10:31:14.703Z,101334.56
2022-12-17T10:36:39.258Z,101340.16
2022-12-17T10:42:11.411Z,101341.41
2022-12-17T10:47:34.360Z,101343.34
2022-12-17T10:52:54.737Z,101346.31
2022-12-17T10:58:21.049Z,101356.22
2022-12-17T11:03:51.225Z,101359.16
2022-12-17T11:09:11.708Z,101353.97
2022-12-17T11:14:32.176Z,101374.66
2022-12-17T11:19:56.942Z,101374.75
2022-12-17T11:25:22.635Z,101375.63
2022-12-17T11:30:45.492Z,101375.53
2022-12-17T11:36:10.604Z,101370.97
2022-12-17T11:41:34.315Z,101373.31
2022-12-17T11:46:57.867Z,101371.34
2022-12-17T11:52:22.017Z,101375.75
2022-12-17T11:57:43.775Z,101379.97
2022-12-17T12:03:12.432Z,101378.16
2022-12-17T12:08:37.495Z,101376.44
2022-12-17T12:13:59.425Z,101376.94
2022-12-17T12:19:24.724Z,101387.41
2022-12-17T12:25:10.873Z,101385.88
2022-12-17T12:30:32.684Z,101388.63
2022-12-17T12:35:52.991Z,101407.84
2022-12-17T12:41:17.482Z,101401.38
2022-12-17T12:46:39.545Z,101403.25
2022-12-17T12:52:00.153Z,101403.34
2022-12-17T12:57:22.037Z,101416.03
2022-12-17T13:02:44.717Z,101425.47
2022-12-17T13:07:47.771Z,101417.63
2022-12-17T13:12:51.979Z,101429.34
2022-12-17T13:18:00.231Z,101429.59
2022-12-17T13:23:15.591Z,101435.88
2022-12-17T13:28:29.554Z,101433.72
2022-12-17T13:33:35.877Z,101444.59
2022-12-17T13:38:43.893Z,101454.63
2022-12-17T13:43:49.414Z,101448.81
2022-12-17T13:48:56.421Z,101450.09
2022-12-17T13:53:59.781Z,101459.34
2022-12-17T13:59:09.291Z,101469.53
2022-12-17T14:04:23.346Z,101476.38
2022-12-17T14:09:30.869Z,101487.72
2022-12-17T14:14:43.648Z,101490.00
2022-12-17T14:19:46.535Z,101498.66
2022-12-17T14:24:49.447Z,101493.97
2022-12-17T14:29:53.736Z,101495.44
2022-12-17T14:35:00.996Z,101502.31
2022-12-17T14:40:05.363Z,101501.09
2022-12-17T14:45:22.765Z,101502.72
2022-12-17T14:50:28.351Z,101520.38
2022-12-17T14:55:35.813Z,101519.91
2022-12-17T15:00:40.144Z,101523.38
2022-12-17T15:05:43.000Z,101529.34
2022-12-17T15:10:45.721Z,101528.38
2022-12-17T15:15:49.797Z,101518.22
2022-12-17T15:20:53.090Z,101530.44
2022-12-17T15:25:56.110Z,101527.47
2022-12-17T15:31:00.364Z,101536.97
2022-12-17T15:36:03.154Z,101536.69
2022-12-17T15:41:27.123Z,101542.63
2022-12-17T15:46:31.465Z,101538.81
2022-12-17T15:51:34.285Z,101544.19
2022-12-17T15:56:37.459Z,101548.50
2022-12-17T16:01:41.691Z,101555.69
2022-12-17T16:06:44.540Z,101559.25
2022-12-17T16:11:47.494Z,101562.69
2022-12-17T16:16:51.879Z,101568.75
2022-12-17T16:21:54.801Z,101571.44
2022-12-17T16:27:04.046Z,101575.00
2022-12-17T16:32:08.794Z,101573.28
2022-12-17T16:37:11.652Z,101568.75
2022-12-17T16:42:14.510Z,101583.13
2022-12-17T16:47:18.736Z,101590.53
2022-12-17T16:52:21.654Z,101580.84
2022-12-17T16:57:24.421Z,101595.41
2022-12-17T17:02:28.714Z,101594.94
2022-12-17T17:07:31.577Z,101600.31
2022-12-17T17:12:34.403Z,101593.69
2022-12-17T17:17:53.846Z,101609.31
2022-12-17T17:22:59.079Z,101608.19
2022-12-17T17:28:01.904Z,101614.13
2022-12-17T17:33:06.083Z,101607.56
2022-12-17T17:38:08.832Z,101612.00
2022-12-17T17:43:12.921Z,101615.06
2022-12-17T17:48:17.057Z,101623.03
2022-12-17T17:53:19.884Z,101628.63
2022-12-17T17:58:22.700Z,101629.63
2022-12-17T18:03:27.026Z,101634.28
2022-12-17T18:08:31.454Z,101636.44
2022-12-17T18:13:51.721Z,101637.81
2022-12-17T18:18:57.576Z,101648.88
2022-12-17T18:24:02.090Z,101652.81
2022-12-17T18:29:08.952Z,101648.41
2022-12-17T18:34:13.820Z,101650.72
2022-12-17T18:39:17.305Z,101655.72
2022-12-17T18:44:20.276Z,101665.34
2022-12-17T18:49:24.486Z,101672.44
2022-12-17T18:54:28.284Z,101670.41
2022-12-17T18:59:31.496Z,101675.72
2022-12-17T19:04:35.689Z,101684.16
2022-12-17T19:09:40.103Z,101685.88
2022-12-17T19:14:43.366Z,101688.06
2022-12-17T19:19:48.122Z,101685.47
2022-12-17T19:24:50.971Z,101696.44
2022-12-17T19:29:54.887Z,101702.78
2022-12-17T19:34:59.098Z,101693.13
2022-12-17T19:40:01.896Z,101701.41
2022-12-17T19:45:05.167Z,101705.03
2022-12-17T19:50:10.135Z,101711.63
2022-12-17T19:55:13.030Z,101708.19
2022-12-17T20:00:16.408Z,101721.09
2022-12-17T20:05:20.749Z,101715.13
2022-12-17T20:10:23.532Z,101724.28
2022-12-17T20:15:26.329Z,101728.03
2022-12-17T20:20:30.552Z,101731.78
2022-12-17T20:25:33.356Z,101741.75
2022-12-17T20:30:36.138Z,101740.88
2022-12-17T20:35:41.697Z,101736.38
2022-12-17T20:40:44.493Z,101739.50
2022-12-17T20:45:50.355Z,101735.09
2022-12-17T20:50:54.821Z,101738.88
2022-12-17T20:56:01.618Z,101741.75
2022-12-17T21:01:06.010Z,101742.81
2022-12-17T21:06:12.005Z,101739.31
2022-12-17T21:11:14.811Z,101751.88
2022-12-17T21:16:19.644Z,101762.72
2022-12-17T21:21:25.016Z,101773.63
2022-12-17T21:26:29.201Z,101780.84
2022-12-17T21:31:33.070Z,101773.81
2022-12-17T21:36:37.278Z,101780.16
2022-12-17T21:41:44.632Z,101778.31
2022-12-17T21:46:50.060Z,101787.41
2022-12-17T21:51:55.078Z,101794.50
2022-12-17T21:56:57.841Z,101797.44
2022-12-17T22:02:00.758Z,101795.38
2022-12-17T22:07:12.538Z,101786.72
2022-12-17T22:12:37.734Z,101802.72
2022-12-17T22:17:42.538Z,101793.91
2022-12-17T22:22:46.760Z,101804.66
2022-12-17T22:27:50.104Z,101821.72
2022-12-17T22:33:02.699Z,101832.44
2022-12-17T22:40:51.362Z,101830.78
2022-12-17T22:44:44.080Z,101834.28
2022-12-17T22:49:05.039Z,101837.91
2022-12-17T22:54:09.344Z,101829.00
2022-12-17T22:59:15.592Z,101828.91
2022-12-17T23:04:18.473Z,101833.53
2022-12-17T23:09:24.010Z,101827.22
2022-12-17T23:14:26.746Z,101833.63
2022-12-17T23:19:29.612Z,101822.91
2022-12-17T23:24:34.869Z,101838.22
2022-12-17T23:29:37.661Z,101841.97
2022-12-17T23:34:41.288Z,101850.78
2022-12-17T23:39:45.437Z,101847.47
2022-12-17T23:44:48.313Z,101854.56
2022-12-17T23:49:51.129Z,101857.53
2022-12-17T23:54:55.514Z,101868.00
2022-12-17T23:59:58.430Z,101864.44
